sensor_id;sensor_type;location;lat;lon;timestamp;P1;durP1;ratioP1;P2;durP2;ratioP2
30147;SDS011;16960;49.404;8.248;2022-12-07T00:01:26;2.40;;;2.20;;
30147;SDS011;16960;49.404;8.248;2022-12-07T00:03:54;2.57;;;2.37;;
30147;SDS011;16960;49.404;8.248;2022-12-07T00:06:25;2.20;;;2.00;;
30147;SDS011;16960;49.404;8.248;2022-12-07T00:08:52;2.43;;;2.23;;
30147;SDS011;16960;49.404;8.248;2022-12-07T00:11:21;2.97;;;2.33;;
30147;SDS011;16960;49.404;8.248;2022-12-07T00:13:50;2.53;;;2.33;;
30147;SDS011;16960;49.404;8.248;2022-12-07T00:16:19;1.80;;;1.70;;
30147;SDS011;16960;49.404;8.248;2022-12-07T00:18:47;2.70;;;2.50;;
30147;SDS011;16960;49.404;8.248;2022-12-07T00:21:15;2.27;;;2.10;;
30147;SDS011;16960;49.404;8.248;2022-12-07T00:23:44;2.13;;;2.03;;
30147;SDS011;16960;49.404;8.248;2022-12-07T00:26:13;3.10;;;2.13;;
30147;SDS011;16960;49.404;8.248;2022-12-07T00:28:44;2.80;;;2.60;;
30147;SDS011;16960;49.404;8.248;2022-12-07T00:31:12;2.90;;;2.60;;
30147;SDS011;16960;49.404;8.248;2022-12-07T00:33:40;5.00;;;2.70;;
30147;SDS011;16960;49.404;8.248;2022-12-07T00:36:07;3.90;;;2.20;;
30147;SDS011;16960;49.404;8.248;2022-12-07T00:38:36;2.50;;;2.30;;
30147;SDS011;16960;49.404;8.248;2022-12-07T00:41:05;3.03;;;2.00;;
30147;SDS011;16960;49.404;8.248;2022-12-07T00:43:35;2.30;;;2.10;;
30147;SDS011;16960;49.404;8.248;2022-12-07T00:46:03;2.23;;;2.13;;
30147;SDS011;16960;49.404;8.248;2022-12-07T00:48:31;2.20;;;2.00;;
30147;SDS011;16960;49.404;8.248;2022-12-07T00:50:57;2.20;;;2.03;;
30147;SDS011;16960;49.404;8.248;2022-12-07T00:53:25;2.30;;;2.10;;
30147;SDS011;16960;49.404;8.248;2022-12-07T00:55:52;2.30;;;2.10;;
30147;SDS011;16960;49.404;8.248;2022-12-07T00:58:20;2.40;;;2.20;;
30147;SDS011;16960;49.404;8.248;2022-12-07T01:00:47;2.27;;;2.07;;
30147;SDS011;16960;49.404;8.248;2022-12-07T01:03:16;2.40;;;2.20;;
30147;SDS011;16960;49.404;8.248;2022-12-07T01:05:48;3.20;;;2.57;;
30147;SDS011;16960;49.404;8.248;2022-12-07T01:08:16;2.60;;;2.23;;
30147;SDS011;16960;49.404;8.248;2022-12-07T01:10:43;2.63;;;2.40;;
30147;SDS011;16960;49.404;8.248;2022-12-07T01:13:10;1.83;;;1.73;;
30147;SDS011;16960;49.404;8.248;2022-12-07T01:15:38;3.13;;;2.90;;
30147;SDS011;16960;49.404;8.248;2022-12-07T01:18:05;2.53;;;2.33;;
30147;SDS011;16960;49.404;8.248;2022-12-07T01:20:33;2.37;;;2.17;;
30147;SDS011;16960;49.404;8.248;2022-12-07T01:23:01;2.63;;;2.40;;
30147;SDS011;16960;49.404;8.248;2022-12-07T01:25:28;2.00;;;1.90;;
30147;SDS011;16960;49.404;8.248;2022-12-07T01:27:55;2.60;;;2.40;;
30147;SDS011;16960;49.404;8.248;2022-12-07T01:30:22;3.10;;;2.30;;
30147;SDS011;16960;49.404;8.248;2022-12-07T01:32:48;2.10;;;1.90;;
30147;SDS011;16960;49.404;8.248;2022-12-07T01:35:15;3.07;;;2.23;;
30147;SDS011;16960;49.404;8.248;2022-12-07T01:37:44;1.97;;;1.87;;
30147;SDS011;16960;49.404;8.248;2022-12-07T01:40:11;2.50;;;2.30;;
30147;SDS011;16960;49.404;8.248;2022-12-07T01:42:38;1.67;;;1.57;;
30147;SDS011;16960;49.404;8.248;2022-12-07T01:45:28;2.37;;;2.17;;
30147;SDS011;16960;49.404;8.248;2022-12-07T01:48:04;2.20;;;2.00;;
30147;SDS011;16960;49.404;8.248;2022-12-07T01:50:33;1.97;;;1.87;;
30147;SDS011;16960;49.404;8.248;2022-12-07T01:53:03;2.47;;;2.27;;
30147;SDS011;16960;49.404;8.248;2022-12-07T01:55:33;2.20;;;2.00;;
30147;SDS011;16960;49.404;8.248;2022-12-07T01:58:03;2.20;;;2.00;;
30147;SDS011;16960;49.404;8.248;2022-12-07T02:00:30;2.37;;;2.17;;
30147;SDS011;16960;49.404;8.248;2022-12-07T02:03:00;2.10;;;1.90;;
30147;SDS011;16960;49.404;8.248;2022-12-07T02:05:32;2.50;;;2.30;;
30147;SDS011;16960;49.404;8.248;2022-12-07T02:08:04;2.33;;;1.60;;
30147;SDS011;16960;49.404;8.248;2022-12-07T02:10:31;2.10;;;1.90;;
30147;SDS011;16960;49.404;8.248;2022-12-07T02:13:00;2.30;;;1.70;;
30147;SDS011;16960;49.404;8.248;2022-12-07T02:15:33;1.93;;;1.83;;
30147;SDS011;16960;49.404;8.248;2022-12-07T02:18:08;1.60;;;1.50;;
30147;SDS011;16960;49.404;8.248;2022-12-07T02:20:42;2.40;;;2.20;;
30147;SDS011;16960;49.404;8.248;2022-12-07T02:29:14;2.10;;;1.97;;
30147;SDS011;16960;49.404;8.248;2022-12-07T02:31:49;1.80;;;1.70;;
30147;SDS011;16960;49.404;8.248;2022-12-07T02:34:22;2.47;;;2.27;;
30147;SDS011;16960;49.404;8.248;2022-12-07T02:36:58;2.53;;;2.33;;
30147;SDS011;16960;49.404;8.248;2022-12-07T02:39:31;2.10;;;1.80;;
30147;SDS011;16960;49.404;8.248;2022-12-07T02:42:06;2.60;;;2.40;;
30147;SDS011;16960;49.404;8.248;2022-12-07T02:44:40;2.23;;;2.03;;
30147;SDS011;16960;49.404;8.248;2022-12-07T02:47:09;2.20;;;2.00;;
30147;SDS011;16960;49.404;8.248;2022-12-07T02:49:39;1.90;;;1.80;;
30147;SDS011;16960;49.404;8.248;2022-12-07T02:52:06;2.27;;;1.97;;
30147;SDS011;16960;49.404;8.248;2022-12-07T02:54:34;2.30;;;2.10;;
30147;SDS011;16960;49.404;8.248;2022-12-07T02:57:02;1.83;;;1.70;;
30147;SDS011;16960;49.404;8.248;2022-12-07T02:59:47;2.00;;;1.80;;
30147;SDS011;16960;49.404;8.248;2022-12-07T03:02:26;2.00;;;1.90;;
30147;SDS011;16960;49.404;8.248;2022-12-07T03:05:01;1.60;;;1.50;;
30147;SDS011;16960;49.404;8.248;2022-12-07T03:07:51;5.17;;;1.80;;
30147;SDS011;16960;49.404;8.248;2022-12-07T03:10:27;1.93;;;1.83;;
30147;SDS011;16960;49.404;8.248;2022-12-07T03:13:02;2.00;;;1.80;;
30147;SDS011;16960;49.404;8.248;2022-12-07T03:15:39;1.67;;;1.57;;
30147;SDS011;16960;49.404;8.248;2022-12-07T03:18:09;2.20;;;2.00;;
30147;SDS011;16960;49.404;8.248;2022-12-07T03:20:38;2.37;;;2.17;;
30147;SDS011;16960;49.404;8.248;2022-12-07T03:23:08;1.67;;;1.57;;
30147;SDS011;16960;49.404;8.248;2022-12-07T03:25:39;1.93;;;1.60;;
30147;SDS011;16960;49.404;8.248;2022-12-07T03:28:07;2.10;;;2.00;;
30147;SDS011;16960;49.404;8.248;2022-12-07T03:30:39;2.60;;;1.67;;
30147;SDS011;16960;49.404;8.248;2022-12-07T03:33:11;1.50;;;1.40;;
30147;SDS011;16960;49.404;8.248;2022-12-07T03:35:42;2.03;;;1.80;;
30147;SDS011;16960;49.404;8.248;2022-12-07T03:38:15;1.80;;;1.70;;
30147;SDS011;16960;49.404;8.248;2022-12-07T03:40:47;1.80;;;1.70;;
30147;SDS011;16960;49.404;8.248;2022-12-07T03:43:19;1.83;;;1.73;;
30147;SDS011;16960;49.404;8.248;2022-12-07T03:45:51;2.20;;;2.00;;
30147;SDS011;16960;49.404;8.248;2022-12-07T03:48:28;1.73;;;1.63;;
30147;SDS011;16960;49.404;8.248;2022-12-07T03:51:03;1.60;;;1.50;;
30147;SDS011;16960;49.404;8.248;2022-12-07T03:53:38;2.00;;;1.90;;
30147;SDS011;16960;49.404;8.248;2022-12-07T03:56:08;2.10;;;1.90;;
30147;SDS011;16960;49.404;8.248;2022-12-07T03:58:37;2.30;;;2.10;;
30147;SDS011;16960;49.404;8.248;2022-12-07T04:01:06;3.90;;;1.90;;
30147;SDS011;16960;49.404;8.248;2022-12-07T04:03:33;1.70;;;1.60;;
30147;SDS011;16960;49.404;8.248;2022-12-07T04:06:00;1.63;;;1.53;;
30147;SDS011;16960;49.404;8.248;2022-12-07T04:08:27;2.10;;;1.83;;
30147;SDS011;16960;49.404;8.248;2022-12-07T04:10:54;2.03;;;1.83;;
30147;SDS011;16960;49.404;8.248;2022-12-07T04:13:21;1.77;;;1.67;;
30147;SDS011;16960;49.404;8.248;2022-12-07T04:15:48;1.53;;;1.43;;
30147;SDS011;16960;49.404;8.248;2022-12-07T04:18:16;1.60;;;1.50;;
30147;SDS011;16960;49.404;8.248;2022-12-07T04:20:43;1.83;;;1.73;;
30147;SDS011;16960;49.404;8.248;2022-12-07T04:23:11;1.60;;;1.50;;
30147;SDS011;16960;49.404;8.248;2022-12-07T04:25:38;2.00;;;1.43;;
30147;SDS011;16960;49.404;8.248;2022-12-07T04:28:05;2.40;;;1.67;;
30147;SDS011;16960;49.404;8.248;2022-12-07T04:30:32;1.67;;;1.57;;
30147;SDS011;16960;49.404;8.248;2022-12-07T04:32:59;1.73;;;1.63;;
30147;SDS011;16960;49.404;8.248;2022-12-07T04:35:27;1.70;;;1.60;;
30147;SDS011;16960;49.404;8.248;2022-12-07T04:37:54;1.87;;;1.77;;
30147;SDS011;16960;49.404;8.248;2022-12-07T04:40:21;2.37;;;2.17;;
30147;SDS011;16960;49.404;8.248;2022-12-07T04:42:48;1.60;;;1.50;;
30147;SDS011;16960;49.404;8.248;2022-12-07T04:45:15;1.67;;;1.57;;
30147;SDS011;16960;49.404;8.248;2022-12-07T04:47:42;1.70;;;1.60;;
30147;SDS011;16960;49.404;8.248;2022-12-07T04:50:09;1.70;;;1.60;;
30147;SDS011;16960;49.404;8.248;2022-12-07T04:52:37;1.80;;;1.70;;
30147;SDS011;16960;49.404;8.248;2022-12-07T04:55:04;1.57;;;1.47;;
30147;SDS011;16960;49.404;8.248;2022-12-07T04:57:32;1.70;;;1.60;;
30147;SDS011;16960;49.404;8.248;2022-12-07T04:59:59;1.90;;;1.80;;
30147;SDS011;16960;49.404;8.248;2022-12-07T05:02:26;2.00;;;1.90;;
30147;SDS011;16960;49.404;8.248;2022-12-07T05:04:53;1.53;;;1.43;;
30147;SDS011;16960;49.404;8.248;2022-12-07T05:07:19;1.93;;;1.83;;
30147;SDS011;16960;49.404;8.248;2022-12-07T05:09:48;2.17;;;1.97;;
30147;SDS011;16960;49.404;8.248;2022-12-07T05:12:15;1.93;;;1.80;;
30147;SDS011;16960;49.404;8.248;2022-12-07T05:14:41;1.73;;;1.63;;
30147;SDS011;16960;49.404;8.248;2022-12-07T05:17:08;1.97;;;1.80;;
30147;SDS011;16960;49.404;8.248;2022-12-07T05:19:36;1.70;;;1.60;;
30147;SDS011;16960;49.404;8.248;2022-12-07T05:22:03;2.70;;;1.70;;
30147;SDS011;16960;49.404;8.248;2022-12-07T05:24:30;1.93;;;1.83;;
30147;SDS011;16960;49.404;8.248;2022-12-07T05:26:58;2.13;;;2.00;;
30147;SDS011;16960;49.404;8.248;2022-12-07T05:29:25;1.87;;;1.77;;
30147;SDS011;16960;49.404;8.248;2022-12-07T05:31:52;2.00;;;1.80;;
30147;SDS011;16960;49.404;8.248;2022-12-07T05:34:19;2.20;;;2.00;;
30147;SDS011;16960;49.404;8.248;2022-12-07T05:36:46;1.97;;;1.87;;
30147;SDS011;16960;49.404;8.248;2022-12-07T05:39:13;1.50;;;1.40;;
30147;SDS011;16960;49.404;8.248;2022-12-07T05:41:40;1.80;;;1.70;;
30147;SDS011;16960;49.404;8.248;2022-12-07T05:44:26;1.90;;;1.40;;
30147;SDS011;16960;49.404;8.248;2022-12-07T05:46:53;1.50;;;1.40;;
30147;SDS011;16960;49.404;8.248;2022-12-07T05:49:20;1.70;;;1.60;;
30147;SDS011;16960;49.404;8.248;2022-12-07T05:51:47;1.93;;;1.83;;
30147;SDS011;16960;49.404;8.248;2022-12-07T05:54:14;1.60;;;1.50;;
30147;SDS011;16960;49.404;8.248;2022-12-07T05:56:41;1.47;;;1.37;;
30147;SDS011;16960;49.404;8.248;2022-12-07T05:59:08;2.10;;;1.60;;
30147;SDS011;16960;49.404;8.248;2022-12-07T06:01:54;1.70;;;1.60;;
30147;SDS011;16960;49.404;8.248;2022-12-07T06:04:22;1.47;;;1.37;;
30147;SDS011;16960;49.404;8.248;2022-12-07T06:06:51;1.60;;;1.50;;
30147;SDS011;16960;49.404;8.248;2022-12-07T06:09:18;1.83;;;1.73;;
30147;SDS011;16960;49.404;8.248;2022-12-07T06:11:45;1.30;;;1.20;;
30147;SDS011;16960;49.404;8.248;2022-12-07T06:14:29;1.63;;;1.30;;
30147;SDS011;16960;49.404;8.248;2022-12-07T06:16:58;2.43;;;1.00;;
30147;SDS011;16960;49.404;8.248;2022-12-07T06:19:25;1.93;;;1.73;;
30147;SDS011;16960;49.404;8.248;2022-12-07T06:21:52;1.40;;;1.30;;
30147;SDS011;16960;49.404;8.248;2022-12-07T06:24:19;1.60;;;1.50;;
30147;SDS011;16960;49.404;8.248;2022-12-07T06:26:46;1.40;;;1.30;;
30147;SDS011;16960;49.404;8.248;2022-12-07T06:29:14;1.70;;;1.40;;
30147;SDS011;16960;49.404;8.248;2022-12-07T06:31:41;1.50;;;1.33;;
30147;SDS011;16960;49.404;8.248;2022-12-07T06:34:10;2.67;;;1.80;;
30147;SDS011;16960;49.404;8.248;2022-12-07T06:36:39;1.70;;;1.60;;
30147;SDS011;16960;49.404;8.248;2022-12-07T06:39:07;1.60;;;1.50;;
30147;SDS011;16960;49.404;8.248;2022-12-07T06:41:35;2.50;;;1.67;;
30147;SDS011;16960;49.404;8.248;2022-12-07T06:44:03;1.67;;;1.40;;
30147;SDS011;16960;49.404;8.248;2022-12-07T06:46:30;1.30;;;1.20;;
30147;SDS011;16960;49.404;8.248;2022-12-07T06:48:57;2.27;;;1.93;;
30147;SDS011;16960;49.404;8.248;2022-12-07T06:51:26;2.53;;;2.00;;
30147;SDS011;16960;49.404;8.248;2022-12-07T06:53:53;3.20;;;2.43;;
30147;SDS011;16960;49.404;8.248;2022-12-07T06:56:20;6.87;;;2.23;;
30147;SDS011;16960;49.404;8.248;2022-12-07T06:58:47;2.47;;;1.93;;
30147;SDS011;16960;49.404;8.248;2022-12-07T07:01:15;2.83;;;2.40;;
30147;SDS011;16960;49.404;8.248;2022-12-07T07:03:44;2.60;;;1.97;;
30147;SDS011;16960;49.404;8.248;2022-12-07T07:06:12;2.20;;;2.00;;
30147;SDS011;16960;49.404;8.248;2022-12-07T07:08:41;2.00;;;1.80;;
30147;SDS011;16960;49.404;8.248;2022-12-07T07:11:08;3.73;;;2.23;;
30147;SDS011;16960;49.404;8.248;2022-12-07T07:13:35;3.23;;;1.83;;
30147;SDS011;16960;49.404;8.248;2022-12-07T07:16:03;2.13;;;1.90;;
30147;SDS011;16960;49.404;8.248;2022-12-07T07:18:31;2.30;;;1.60;;
30147;SDS011;16960;49.404;8.248;2022-12-07T07:20:57;2.27;;;2.07;;
30147;SDS011;16960;49.404;8.248;2022-12-07T07:23:24;2.43;;;2.23;;
30147;SDS011;16960;49.404;8.248;2022-12-07T07:25:53;2.10;;;1.90;;
30147;SDS011;16960;49.404;8.248;2022-12-07T07:28:20;2.57;;;2.37;;
30147;SDS011;16960;49.404;8.248;2022-12-07T07:30:47;2.60;;;2.40;;
30147;SDS011;16960;49.404;8.248;2022-12-07T07:33:14;3.13;;;2.37;;
30147;SDS011;16960;49.404;8.248;2022-12-07T07:35:41;2.40;;;2.20;;
30147;SDS011;16960;49.404;8.248;2022-12-07T07:38:08;1.93;;;1.83;;
30147;SDS011;16960;49.404;8.248;2022-12-07T07:40:35;2.47;;;1.80;;
30147;SDS011;16960;49.404;8.248;2022-12-07T07:43:03;3.27;;;2.00;;
30147;SDS011;16960;49.404;8.248;2022-12-07T07:45:31;2.30;;;2.00;;
30147;SDS011;16960;49.404;8.248;2022-12-07T07:47:58;1.90;;;1.80;;
30147;SDS011;16960;49.404;8.248;2022-12-07T07:50:25;2.13;;;1.87;;
30147;SDS011;16960;49.404;8.248;2022-12-07T07:52:52;2.87;;;2.57;;
30147;SDS011;16960;49.404;8.248;2022-12-07T07:55:19;2.60;;;2.40;;
30147;SDS011;16960;49.404;8.248;2022-12-07T07:57:46;2.30;;;2.10;;
30147;SDS011;16960;49.404;8.248;2022-12-07T08:00:15;2.60;;;2.33;;
30147;SDS011;16960;49.404;8.248;2022-12-07T08:02:43;3.00;;;2.00;;
30147;SDS011;16960;49.404;8.248;2022-12-07T08:05:11;2.87;;;2.30;;
30147;SDS011;16960;49.404;8.248;2022-12-07T08:07:39;2.60;;;2.40;;
30147;SDS011;16960;49.404;8.248;2022-12-07T08:10:06;3.80;;;1.80;;
30147;SDS011;16960;49.404;8.248;2022-12-07T08:12:36;2.33;;;2.13;;
30147;SDS011;16960;49.404;8.248;2022-12-07T08:15:25;2.57;;;2.40;;
30147;SDS011;16960;49.404;8.248;2022-12-07T08:17:53;2.37;;;2.10;;
30147;SDS011;16960;49.404;8.248;2022-12-07T08:20:20;2.43;;;2.23;;
30147;SDS011;16960;49.404;8.248;2022-12-07T08:22:48;2.53;;;2.33;;
30147;SDS011;16960;49.404;8.248;2022-12-07T08:25:15;2.43;;;2.23;;
30147;SDS011;16960;49.404;8.248;2022-12-07T08:27:42;1.80;;;1.70;;
30147;SDS011;16960;49.404;8.248;2022-12-07T08:30:09;3.13;;;2.83;;
30147;SDS011;16960;49.404;8.248;2022-12-07T08:32:38;2.40;;;2.10;;
30147;SDS011;16960;49.404;8.248;2022-12-07T08:35:05;2.63;;;2.43;;
30147;SDS011;16960;49.404;8.248;2022-12-07T08:37:33;3.50;;;2.30;;
30147;SDS011;16960;49.404;8.248;2022-12-07T08:40:00;2.60;;;2.40;;
30147;SDS011;16960;49.404;8.248;2022-12-07T08:42:27;2.83;;;2.37;;
30147;SDS011;16960;49.404;8.248;2022-12-07T08:45:02;4.40;;;2.93;;
30147;SDS011;16960;49.404;8.248;2022-12-07T08:47:31;2.90;;;2.70;;
30147;SDS011;16960;49.404;8.248;2022-12-07T08:50:00;2.80;;;2.60;;
30147;SDS011;16960;49.404;8.248;2022-12-07T08:52:28;2.60;;;2.40;;
30147;SDS011;16960;49.404;8.248;2022-12-07T08:54:56;2.97;;;2.30;;
30147;SDS011;16960;49.404;8.248;2022-12-07T08:57:24;2.70;;;2.03;;
30147;SDS011;16960;49.404;8.248;2022-12-07T08:59:52;2.43;;;2.07;;
30147;SDS011;16960;49.404;8.248;2022-12-07T09:02:20;4.33;;;2.03;;
30147;SDS011;16960;49.404;8.248;2022-12-07T09:04:47;2.30;;;2.10;;
30147;SDS011;16960;49.404;8.248;2022-12-07T09:07:15;2.23;;;2.03;;
30147;SDS011;16960;49.404;8.248;2022-12-07T09:09:42;3.27;;;2.00;;
30147;SDS011;16960;49.404;8.248;2022-12-07T09:12:09;2.13;;;1.97;;
30147;SDS011;16960;49.404;8.248;2022-12-07T09:14:36;3.97;;;1.87;;
30147;SDS011;16960;49.404;8.248;2022-12-07T09:17:07;2.33;;;2.13;;
30147;SDS011;16960;49.404;8.248;2022-12-07T09:19:34;1.80;;;1.70;;
30147;SDS011;16960;49.404;8.248;2022-12-07T09:22:02;2.33;;;2.07;;
30147;SDS011;16960;49.404;8.248;2022-12-07T09:24:31;3.37;;;2.20;;
30147;SDS011;16960;49.404;8.248;2022-12-07T09:26:58;2.33;;;2.13;;
30147;SDS011;16960;49.404;8.248;2022-12-07T09:29:25;2.40;;;1.80;;
30147;SDS011;16960;49.404;8.248;2022-12-07T09:31:52;1.93;;;1.83;;
30147;SDS011;16960;49.404;8.248;2022-12-07T09:34:19;1.30;;;1.20;;
30147;SDS011;16960;49.404;8.248;2022-12-07T09:36:46;2.10;;;1.90;;
30147;SDS011;16960;49.404;8.248;2022-12-07T09:39:13;1.60;;;1.40;;
30147;SDS011;16960;49.404;8.248;2022-12-07T09:41:42;2.53;;;1.70;;
30147;SDS011;16960;49.404;8.248;2022-12-07T09:44:11;1.57;;;1.47;;
30147;SDS011;16960;49.404;8.248;2022-12-07T09:46:42;1.73;;;1.63;;
30147;SDS011;16960;49.404;8.248;2022-12-07T09:49:10;2.03;;;1.93;;
30147;SDS011;16960;49.404;8.248;2022-12-07T09:51:41;2.10;;;1.80;;
30147;SDS011;16960;49.404;8.248;2022-12-07T09:54:08;2.77;;;1.70;;
30147;SDS011;16960;49.404;8.248;2022-12-07T09:56:38;1.80;;;1.70;;
30147;SDS011;16960;49.404;8.248;2022-12-07T09:59:09;2.30;;;2.10;;
30147;SDS011;16960;49.404;8.248;2022-12-07T10:01:42;2.07;;;1.97;;
30147;SDS011;16960;49.404;8.248;2022-12-07T10:04:11;1.77;;;1.67;;
30147;SDS011;16960;49.404;8.248;2022-12-07T10:06:40;2.07;;;1.87;;
30147;SDS011;16960;49.404;8.248;2022-12-07T10:09:09;1.97;;;1.77;;
30147;SDS011;16960;49.404;8.248;2022-12-07T10:14:27;1.80;;;1.50;;
30147;SDS011;16960;49.404;8.248;2022-12-07T10:16:55;2.97;;;1.80;;
30147;SDS011;16960;49.404;8.248;2022-12-07T10:19:23;3.10;;;1.77;;
30147;SDS011;16960;49.404;8.248;2022-12-07T10:22:00;1.67;;;1.57;;
30147;SDS011;16960;49.404;8.248;2022-12-07T10:24:33;2.90;;;1.73;;
30147;SDS011;16960;49.404;8.248;2022-12-07T10:27:02;2.20;;;2.00;;
30147;SDS011;16960;49.404;8.248;2022-12-07T10:29:32;1.60;;;1.50;;
30147;SDS011;16960;49.404;8.248;2022-12-07T10:32:01;1.90;;;1.70;;
30147;SDS011;16960;49.404;8.248;2022-12-07T10:34:30;2.23;;;1.90;;
30147;SDS011;16960;49.404;8.248;2022-12-07T10:37:15;1.53;;;1.43;;
30147;SDS011;16960;49.404;8.248;2022-12-07T10:39:43;1.70;;;1.60;;
30147;SDS011;16960;49.404;8.248;2022-12-07T10:42:16;1.63;;;1.53;;
30147;SDS011;16960;49.404;8.248;2022-12-07T10:44:46;1.80;;;1.70;;
30147;SDS011;16960;49.404;8.248;2022-12-07T10:47:17;1.93;;;1.77;;
30147;SDS011;16960;49.404;8.248;2022-12-07T10:52:45;1.50;;;1.40;;
30147;SDS011;16960;49.404;8.248;2022-12-07T10:55:25;1.70;;;1.60;;
30147;SDS011;16960;49.404;8.248;2022-12-07T10:58:18;2.17;;;1.97;;
30147;SDS011;16960;49.404;8.248;2022-12-07T11:00:58;1.70;;;1.60;;
30147;SDS011;16960;49.404;8.248;2022-12-07T11:03:38;1.70;;;1.60;;
30147;SDS011;16960;49.404;8.248;2022-12-07T11:06:14;1.53;;;1.43;;
30147;SDS011;16960;49.404;8.248;2022-12-07T11:11:45;1.30;;;1.20;;
30147;SDS011;16960;49.404;8.248;2022-12-07T11:14:19;1.73;;;1.63;;
30147;SDS011;16960;49.404;8.248;2022-12-07T11:16:56;2.07;;;1.30;;
30147;SDS011;16960;49.404;8.248;2022-12-07T11:19:44;1.60;;;1.40;;
30147;SDS011;16960;49.404;8.248;2022-12-07T11:22:19;1.63;;;1.53;;
30147;SDS011;16960;49.404;8.248;2022-12-07T11:24:55;1.27;;;1.17;;
30147;SDS011;16960;49.404;8.248;2022-12-07T11:27:30;1.87;;;1.60;;
30147;SDS011;16960;49.404;8.248;2022-12-07T11:30:08;1.50;;;1.40;;
30147;SDS011;16960;49.404;8.248;2022-12-07T11:32:45;2.53;;;1.70;;
30147;SDS011;16960;49.404;8.248;2022-12-07T11:35:35;3.10;;;1.30;;
30147;SDS011;16960;49.404;8.248;2022-12-07T11:38:08;1.40;;;1.30;;
30147;SDS011;16960;49.404;8.248;2022-12-07T11:40:38;1.40;;;1.30;;
30147;SDS011;16960;49.404;8.248;2022-12-07T11:43:12;1.80;;;1.43;;
30147;SDS011;16960;49.404;8.248;2022-12-07T11:45:45;1.50;;;1.40;;
30147;SDS011;16960;49.404;8.248;2022-12-07T11:48:20;1.73;;;1.40;;
30147;SDS011;16960;49.404;8.248;2022-12-07T11:50:56;2.80;;;1.90;;
30147;SDS011;16960;49.404;8.248;2022-12-07T11:53:26;1.67;;;1.20;;
30147;SDS011;16960;49.404;8.248;2022-12-07T11:56:00;1.63;;;1.53;;
30147;SDS011;16960;49.404;8.248;2022-12-07T11:58:42;1.50;;;1.40;;
30147;SDS011;16960;49.404;8.248;2022-12-07T12:01:21;2.20;;;1.70;;
30147;SDS011;16960;49.404;8.248;2022-12-07T12:03:58;1.60;;;1.50;;
30147;SDS011;16960;49.404;8.248;2022-12-07T12:06:32;1.10;;;1.00;;
30147;SDS011;16960;49.404;8.248;2022-12-07T12:09:01;1.50;;;1.27;;
30147;SDS011;16960;49.404;8.248;2022-12-07T12:11:37;1.67;;;1.43;;
30147;SDS011;16960;49.404;8.248;2022-12-07T12:14:27;1.67;;;1.30;;
30147;SDS011;16960;49.404;8.248;2022-12-07T12:17:14;1.80;;;1.10;;
30147;SDS011;16960;49.404;8.248;2022-12-07T12:20:13;1.70;;;1.60;;
30147;SDS011;16960;49.404;8.248;2022-12-07T12:22:46;1.57;;;1.47;;
30147;SDS011;16960;49.404;8.248;2022-12-07T12:25:19;2.07;;;1.43;;
30147;SDS011;16960;49.404;8.248;2022-12-07T12:27:48;1.90;;;1.40;;
30147;SDS011;16960;49.404;8.248;2022-12-07T12:30:28;1.47;;;1.07;;
30147;SDS011;16960;49.404;8.248;2022-12-07T12:33:05;1.43;;;1.33;;
30147;SDS011;16960;49.404;8.248;2022-12-07T12:35:41;2.23;;;1.20;;
30147;SDS011;16960;49.404;8.248;2022-12-07T12:38:26;1.37;;;1.13;;
30147;SDS011;16960;49.404;8.248;2022-12-07T12:40:56;2.43;;;1.50;;
30147;SDS011;16960;49.404;8.248;2022-12-07T12:46:36;1.50;;;1.33;;
30147;SDS011;16960;49.404;8.248;2022-12-07T12:55:16;1.10;;;1.00;;
30147;SDS011;16960;49.404;8.248;2022-12-07T12:57:46;1.40;;;1.30;;
30147;SDS011;16960;49.404;8.248;2022-12-07T13:00:18;2.17;;;1.30;;
30147;SDS011;16960;49.404;8.248;2022-12-07T13:02:50;1.60;;;1.50;;
30147;SDS011;16960;49.404;8.248;2022-12-07T13:05:18;1.50;;;1.20;;
30147;SDS011;16960;49.404;8.248;2022-12-07T13:07:54;1.50;;;1.23;;
30147;SDS011;16960;49.404;8.248;2022-12-07T13:10:39;1.30;;;1.10;;
30147;SDS011;16960;49.404;8.248;2022-12-07T13:22:38;1.20;;;1.10;;
30147;SDS011;16960;49.404;8.248;2022-12-07T13:25:30;1.50;;;1.40;;
30147;SDS011;16960;49.404;8.248;2022-12-07T13:28:09;1.37;;;1.27;;
30147;SDS011;16960;49.404;8.248;2022-12-07T13:30:44;1.40;;;1.30;;
30147;SDS011;16960;49.404;8.248;2022-12-07T13:33:17;1.40;;;1.20;;
30147;SDS011;16960;49.404;8.248;2022-12-07T13:35:45;1.83;;;1.23;;
30147;SDS011;16960;49.404;8.248;2022-12-07T13:38:22;1.70;;;1.20;;
30147;SDS011;16960;49.404;8.248;2022-12-07T13:41:02;2.07;;;1.20;;
30147;SDS011;16960;49.404;8.248;2022-12-07T13:43:41;1.90;;;1.20;;
30147;SDS011;16960;49.404;8.248;2022-12-07T13:46:09;1.10;;;1.00;;
30147;SDS011;16960;49.404;8.248;2022-12-07T13:48:43;1.20;;;1.10;;
30147;SDS011;16960;49.404;8.248;2022-12-07T13:51:16;2.00;;;1.50;;
30147;SDS011;16960;49.404;8.248;2022-12-07T13:53:48;1.47;;;1.03;;
30147;SDS011;16960;49.404;8.248;2022-12-07T13:56:17;1.40;;;1.00;;
30147;SDS011;16960;49.404;8.248;2022-12-07T13:58:45;1.40;;;1.17;;
30147;SDS011;16960;49.404;8.248;2022-12-07T14:01:12;1.73;;;1.13;;
30147;SDS011;16960;49.404;8.248;2022-12-07T14:03:39;1.90;;;1.40;;
30147;SDS011;16960;49.404;8.248;2022-12-07T14:06:10;1.10;;;1.00;;
30147;SDS011;16960;49.404;8.248;2022-12-07T14:08:41;0.97;;;0.90;;
30147;SDS011;16960;49.404;8.248;2022-12-07T14:11:09;1.63;;;1.33;;
30147;SDS011;16960;49.404;8.248;2022-12-07T14:13:47;1.40;;;1.30;;
30147;SDS011;16960;49.404;8.248;2022-12-07T14:16:23;1.10;;;1.00;;
30147;SDS011;16960;49.404;8.248;2022-12-07T14:18:54;1.30;;;1.20;;
30147;SDS011;16960;49.404;8.248;2022-12-07T14:21:22;1.23;;;1.13;;
30147;SDS011;16960;49.404;8.248;2022-12-07T14:26:38;1.20;;;1.10;;
30147;SDS011;16960;49.404;8.248;2022-12-07T14:29:20;1.10;;;1.00;;
30147;SDS011;16960;49.404;8.248;2022-12-07T14:31:59;1.30;;;1.20;;
30147;SDS011;16960;49.404;8.248;2022-12-07T14:34:52;1.20;;;0.93;;
30147;SDS011;16960;49.404;8.248;2022-12-07T14:37:23;1.13;;;1.03;;
30147;SDS011;16960;49.404;8.248;2022-12-07T14:39:50;1.37;;;1.10;;
30147;SDS011;16960;49.404;8.248;2022-12-07T14:42:17;1.53;;;1.20;;
30147;SDS011;16960;49.404;8.248;2022-12-07T14:44:47;1.83;;;1.50;;
30147;SDS011;16960;49.404;8.248;2022-12-07T14:47:14;1.67;;;1.07;;
30147;SDS011;16960;49.404;8.248;2022-12-07T14:49:41;1.37;;;1.27;;
30147;SDS011;16960;49.404;8.248;2022-12-07T14:52:09;1.40;;;1.30;;
30147;SDS011;16960;49.404;8.248;2022-12-07T14:54:42;1.47;;;1.20;;
30147;SDS011;16960;49.404;8.248;2022-12-07T14:57:10;1.30;;;1.20;;
30147;SDS011;16960;49.404;8.248;2022-12-07T14:59:37;1.30;;;1.20;;
30147;SDS011;16960;49.404;8.248;2022-12-07T15:02:06;1.73;;;1.27;;
30147;SDS011;16960;49.404;8.248;2022-12-07T15:04:36;1.93;;;1.60;;
30147;SDS011;16960;49.404;8.248;2022-12-07T15:07:04;1.20;;;1.10;;
30147;SDS011;16960;49.404;8.248;2022-12-07T15:09:32;1.77;;;1.57;;
30147;SDS011;16960;49.404;8.248;2022-12-07T15:11:59;1.40;;;1.30;;
30147;SDS011;16960;49.404;8.248;2022-12-07T15:14:26;1.30;;;1.20;;
30147;SDS011;16960;49.404;8.248;2022-12-07T15:16:53;1.20;;;1.10;;
30147;SDS011;16960;49.404;8.248;2022-12-07T15:19:22;1.23;;;1.13;;
30147;SDS011;16960;49.404;8.248;2022-12-07T15:21:51;2.17;;;1.40;;
30147;SDS011;16960;49.404;8.248;2022-12-07T15:24:18;1.47;;;1.37;;
30147;SDS011;16960;49.404;8.248;2022-12-07T15:26:46;1.23;;;1.13;;
30147;SDS011;16960;49.404;8.248;2022-12-07T15:29:13;1.53;;;1.30;;
30147;SDS011;16960;49.404;8.248;2022-12-07T15:31:41;1.13;;;1.03;;
30147;SDS011;16960;49.404;8.248;2022-12-07T15:34:09;1.43;;;1.33;;
30147;SDS011;16960;49.404;8.248;2022-12-07T15:36:37;1.83;;;1.57;;
30147;SDS011;16960;49.404;8.248;2022-12-07T15:39:04;1.17;;;1.07;;
30147;SDS011;16960;49.404;8.248;2022-12-07T15:41:31;1.67;;;1.57;;
30147;SDS011;16960;49.404;8.248;2022-12-07T15:43:58;1.30;;;1.20;;